createdAt,value
2017-12-21T00:02:17.303Z,24.80
2017-12-21T00:04:46.495Z,27.60
2017-12-21T00:07:15.778Z,22.60
2017-12-21T00:09:44.965Z,30.57
2017-12-21T00:12:14.188Z,25.83
2017-12-21T00:14:43.440Z,27.50
2017-12-21T00:17:13.570Z,23.83
2017-12-21T00:19:42.766Z,27.30
2017-12-21T00:22:12.736Z,23.80
2017-12-21T00:24:41.914Z,25.60
2017-12-21T00:27:11.143Z,19.63
2017-12-21T00:29:40.347Z,23.07
2017-12-21T00:32:09.552Z,25.20
2017-12-21T00:34:39.522Z,21.17
2017-12-21T00:37:08.744Z,22.53
2017-12-21T00:39:37.956Z,21.00
2017-12-21T00:42:07.178Z,19.33
2017-12-21T00:44:36.366Z,22.70
2017-12-21T00:47:06.338Z,19.73
2017-12-21T00:49:35.567Z,22.13
2017-12-21T00:52:05.558Z,21.33
2017-12-21T00:54:34.759Z,25.37
2017-12-21T00:57:03.964Z,27.83
2017-12-21T00:59:33.328Z,23.90
2017-12-21T01:02:02.570Z,19.40
2017-12-21T01:04:32.570Z,20.30
2017-12-21T01:07:01.838Z,22.60
2017-12-21T01:09:31.015Z,23.97
2017-12-21T01:12:00.284Z,23.03
2017-12-21T01:14:30.247Z,20.43
2017-12-21T01:16:59.500Z,22.97
2017-12-21T01:19:29.519Z,25.57
2017-12-21T01:21:59.527Z,22.87
2017-12-21T01:24:28.740Z,24.70
2017-12-21T01:26:58.731Z,24.13
2017-12-21T01:29:27.919Z,24.33
2017-12-21T01:31:57.135Z,22.30
2017-12-21T01:34:26.371Z,17.43
2017-12-21T01:36:55.719Z,20.03
2017-12-21T01:39:24.923Z,19.63
2017-12-21T01:41:54.098Z,20.37
2017-12-21T01:44:23.302Z,17.03
2017-12-21T01:46:52.515Z,19.37
2017-12-21T01:49:21.722Z,17.73
2017-12-21T01:51:51.738Z,18.23
2017-12-21T01:54:20.942Z,21.40
2017-12-21T01:56:50.904Z,19.20
2017-12-21T01:59:20.121Z,19.80
2017-12-21T02:01:49.379Z,19.47
2017-12-21T02:04:18.617Z,17.53
2017-12-21T02:06:47.837Z,16.00
2017-12-21T02:09:17.829Z,14.20
2017-12-21T02:11:47.122Z,17.73
2017-12-21T02:14:16.360Z,14.60
2017-12-21T02:16:46.326Z,18.63
2017-12-21T02:19:15.518Z,18.60
2017-12-21T02:21:45.435Z,16.23
2017-12-21T02:24:14.651Z,17.60
2017-12-21T02:26:43.899Z,18.00
2017-12-21T02:29:14.786Z,17.20
2017-12-21T02:31:44.050Z,15.80
2017-12-21T02:34:13.274Z,17.03
2017-12-21T02:36:42.474Z,19.33
2017-12-21T02:39:11.772Z,17.00
2017-12-21T02:41:41.240Z,17.03
2017-12-21T02:44:10.435Z,18.77
2017-12-21T02:46:39.608Z,19.23
2017-12-21T02:49:08.875Z,23.23
2017-12-21T02:51:38.067Z,24.43
2017-12-21T02:54:07.299Z,17.17
2017-12-21T02:56:37.316Z,22.40
2017-12-21T02:59:06.501Z,25.00
2017-12-21T03:01:35.852Z,23.97
2017-12-21T03:04:05.123Z,28.90
2017-12-21T03:06:35.098Z,31.40
2017-12-21T03:09:04.269Z,35.03
2017-12-21T03:11:33.509Z,30.57
2017-12-21T03:14:02.695Z,31.80
2017-12-21T03:16:31.955Z,33.73
2017-12-21T03:19:01.171Z,35.40
2017-12-21T03:21:30.374Z,38.10
2017-12-21T03:23:59.671Z,44.13
2017-12-21T03:26:28.863Z,38.90
2017-12-21T03:28:58.088Z,48.43
2017-12-21T03:31:27.302Z,42.17
2017-12-21T03:33:57.282Z,55.30
2017-12-21T03:36:26.458Z,45.67
2017-12-21T03:38:55.663Z,45.33
2017-12-21T03:41:24.850Z,42.53
2017-12-21T03:43:54.078Z,41.90
2017-12-21T03:46:23.328Z,40.53
2017-12-21T03:48:52.549Z,38.70
2017-12-21T03:51:22.574Z,39.93
2017-12-21T03:53:51.776Z,43.90
2017-12-21T03:56:21.012Z,45.87
2017-12-21T03:58:50.204Z,42.00
2017-12-21T04:01:19.410Z,36.13
2017-12-21T04:03:48.614Z,37.57
2017-12-21T04:06:18.692Z,45.23
2017-12-21T04:08:47.873Z,38.73
2017-12-21T04:11:17.085Z,31.27
2017-12-21T04:13:46.290Z,40.67
2017-12-21T04:16:15.552Z,37.60
2017-12-21T04:18:44.753Z,33.07
2017-12-21T04:21:13.940Z,32.53
2017-12-21T04:23:43.235Z,40.23
2017-12-21T04:26:12.426Z,38.93
2017-12-21T04:28:42.382Z,33.03
2017-12-21T04:31:11.570Z,38.33
2017-12-21T04:33:40.772Z,36.70
2017-12-21T04:36:09.966Z,35.70
2017-12-21T04:38:39.181Z,37.20
2017-12-21T04:41:08.358Z,37.00
2017-12-21T04:43:37.619Z,39.13
2017-12-21T04:46:07.582Z,39.43
2017-12-21T04:48:36.789Z,40.40
2017-12-21T04:51:06.003Z,40.53
2017-12-21T04:53:35.202Z,36.23
2017-12-21T04:56:04.410Z,35.80
2017-12-21T04:58:33.654Z,41.43
2017-12-21T05:01:02.844Z,38.57
2017-12-21T05:03:32.058Z,50.83
2017-12-21T05:06:01.267Z,46.07
2017-12-21T05:08:30.462Z,45.83
2017-12-21T05:10:59.681Z,48.03
2017-12-21T05:13:28.872Z,53.07
2017-12-21T05:15:58.071Z,49.17
2017-12-21T05:18:27.320Z,40.33
2017-12-21T05:20:57.263Z,43.03
2017-12-21T05:23:26.471Z,46.20
2017-12-21T05:25:55.674Z,53.60
2017-12-21T05:28:24.906Z,39.73
2017-12-21T05:30:54.867Z,44.63
2017-12-21T05:33:24.066Z,41.80
2017-12-21T05:35:53.262Z,32.80
2017-12-21T05:38:22.538Z,49.17
2017-12-21T05:40:51.763Z,39.40
2017-12-21T05:43:21.044Z,41.30
2017-12-21T05:45:50.243Z,39.77
2017-12-21T05:48:19.453Z,50.90
2017-12-21T05:50:48.676Z,43.40
2017-12-21T05:53:17.900Z,39.63
2017-12-21T05:55:47.935Z,43.97
2017-12-21T05:58:17.127Z,36.10
2017-12-21T06:00:50.219Z,36.03
2017-12-21T06:03:19.453Z,36.73
2017-12-21T06:05:48.643Z,40.50
2017-12-21T06:08:17.884Z,47.27
2017-12-21T06:10:47.091Z,38.83
2017-12-21T06:13:17.050Z,41.80
2017-12-21T06:15:46.266Z,42.30
2017-12-21T06:18:16.084Z,39.83
2017-12-21T06:20:45.324Z,40.77
2017-12-21T06:23:15.288Z,40.17
2017-12-21T06:25:44.500Z,44.23
2017-12-21T06:28:13.730Z,38.23
2017-12-21T06:30:42.956Z,48.43
2017-12-21T06:33:12.203Z,44.23
2017-12-21T06:35:41.390Z,41.73
2017-12-21T06:38:10.600Z,41.33
2017-12-21T06:40:40.587Z,46.20
2017-12-21T06:43:09.867Z,39.40
2017-12-21T06:45:39.038Z,37.23
2017-12-21T06:48:08.279Z,38.53
2017-12-21T06:50:37.550Z,47.73
2017-12-21T06:53:06.771Z,42.90
2017-12-21T06:55:36.040Z,42.80
2017-12-21T06:58:05.231Z,38.27
2017-12-21T07:00:34.466Z,38.50
2017-12-21T07:03:03.655Z,39.00
2017-12-21T07:05:32.855Z,46.70
2017-12-21T07:08:02.073Z,47.77
2017-12-21T07:10:31.296Z,37.57
2017-12-21T07:13:00.469Z,46.33
2017-12-21T07:15:29.805Z,39.67
2017-12-21T07:17:59.893Z,34.80
2017-12-21T07:20:29.095Z,42.57
2017-12-21T07:22:58.359Z,34.27
2017-12-21T07:25:27.578Z,39.27
2017-12-21T07:27:56.791Z,40.20
2017-12-21T07:30:26.774Z,34.90
2017-12-21T07:32:56.011Z,33.60
2017-12-21T07:35:25.246Z,33.80
2017-12-21T07:37:54.446Z,30.20
2017-12-21T07:40:23.663Z,26.13
2017-12-21T07:42:52.887Z,30.47
2017-12-21T07:45:22.153Z,29.20
2017-12-21T07:47:51.363Z,27.63
2017-12-21T07:50:20.567Z,28.37
2017-12-21T07:52:49.786Z,29.07
2017-12-21T07:55:19.002Z,25.73
2017-12-21T07:57:48.218Z,27.90
2017-12-21T08:00:17.428Z,23.93
2017-12-21T08:02:46.631Z,29.43
2017-12-21T08:05:15.851Z,32.37
2017-12-21T08:07:45.067Z,28.30
2017-12-21T08:10:14.315Z,29.60
2017-12-21T08:12:43.553Z,28.20
2017-12-21T08:15:12.759Z,27.83
2017-12-21T08:17:41.952Z,27.80
2017-12-21T08:20:11.167Z,22.03
2017-12-21T08:22:40.393Z,27.90
2017-12-21T08:25:09.577Z,24.37
2017-12-21T08:27:39.559Z,23.33
2017-12-21T08:30:08.799Z,20.87
2017-12-21T08:32:38.003Z,17.30
2017-12-21T08:35:07.206Z,22.13
2017-12-21T08:37:36.414Z,20.70
2017-12-21T08:40:05.641Z,19.83
2017-12-21T08:42:34.817Z,19.10
2017-12-21T08:45:04.029Z,21.87
2017-12-21T08:47:33.242Z,20.70
2017-12-21T08:50:02.457Z,19.17
2017-12-21T08:52:32.457Z,20.17
2017-12-21T08:55:01.643Z,16.63
2017-12-21T08:57:30.862Z,18.03
2017-12-21T09:00:00.830Z,23.40
2017-12-21T09:02:30.120Z,15.83
2017-12-21T09:05:01.207Z,16.50
2017-12-21T09:07:30.465Z,14.90
2017-12-21T09:09:59.683Z,17.33
2017-12-21T09:12:28.889Z,15.77
2017-12-21T09:14:58.124Z,14.80
2017-12-21T09:17:28.112Z,16.07
2017-12-21T09:19:57.294Z,22.53
2017-12-21T09:22:26.490Z,17.43
2017-12-21T09:24:55.697Z,18.17
2017-12-21T09:27:24.910Z,17.00
2017-12-21T09:29:54.116Z,19.83
2017-12-21T09:32:23.301Z,18.97
2017-12-21T09:34:52.510Z,22.30
2017-12-21T09:37:22.480Z,22.00
2017-12-21T09:39:51.678Z,18.27
2017-12-21T09:42:20.871Z,18.83
2017-12-21T09:44:50.107Z,18.97
2017-12-21T09:47:19.295Z,15.07
2017-12-21T09:49:48.526Z,21.47
2017-12-21T09:52:18.482Z,17.43
2017-12-21T09:54:48.499Z,16.73
2017-12-21T09:57:17.790Z,16.77
2017-12-21T09:59:47.016Z,24.90
2017-12-21T10:02:16.244Z,24.43
2017-12-21T10:04:46.235Z,21.23
2017-12-21T10:07:15.463Z,28.40
2017-12-21T10:09:45.437Z,23.40
2017-12-21T10:12:14.656Z,27.23
2017-12-21T10:14:43.858Z,23.80
2017-12-21T10:17:13.846Z,24.93
2017-12-21T10:19:43.056Z,28.13
2017-12-21T10:22:12.282Z,28.43
2017-12-21T10:24:42.224Z,23.37
2017-12-21T10:27:11.571Z,25.03
2017-12-21T10:29:40.820Z,23.90
2017-12-21T10:32:10.039Z,26.07
2017-12-21T10:34:39.278Z,23.20
2017-12-21T10:37:08.482Z,27.77
2017-12-21T10:39:38.582Z,21.53
2017-12-21T10:42:07.783Z,26.07
2017-12-21T10:44:36.991Z,21.47
2017-12-21T10:47:06.962Z,21.03
2017-12-21T10:49:36.311Z,22.80
2017-12-21T10:52:06.290Z,19.53
2017-12-21T10:54:35.598Z,22.27
2017-12-21T10:57:04.785Z,19.77
2017-12-21T10:59:34.123Z,22.40
2017-12-21T11:02:04.146Z,24.60
2017-12-21T11:04:34.136Z,20.47
2017-12-21T11:07:03.333Z,24.60
2017-12-21T11:09:32.558Z,19.73
2017-12-21T11:12:02.504Z,22.53
2017-12-21T11:14:31.724Z,24.07
2017-12-21T11:17:00.938Z,24.67
2017-12-21T11:19:30.130Z,23.13
2017-12-21T11:21:59.321Z,15.07
2017-12-21T11:24:28.494Z,10.07
2017-12-21T11:26:57.731Z,9.40
2017-12-21T11:29:26.915Z,12.20
2017-12-21T11:31:56.142Z,12.23
2017-12-21T11:34:26.147Z,13.20
2017-12-21T11:36:55.380Z,16.27
2017-12-21T11:39:24.635Z,13.07
2017-12-21T11:41:53.834Z,16.87
2017-12-21T11:44:23.028Z,18.43
2017-12-21T11:46:52.283Z,14.23
2017-12-21T11:49:21.477Z,17.87
2017-12-21T11:51:50.669Z,17.60
2017-12-21T11:54:19.907Z,14.80
2017-12-21T11:56:49.099Z,16.20
2017-12-21T11:59:18.371Z,17.30
2017-12-21T12:01:47.551Z,19.70
2017-12-21T12:04:16.766Z,20.67
2017-12-21T12:06:45.955Z,15.43
2017-12-21T12:09:15.163Z,13.93
2017-12-21T12:11:44.361Z,17.27
2017-12-21T12:14:13.566Z,19.30
2017-12-21T12:16:42.791Z,19.20
2017-12-21T12:19:12.039Z,16.97
2017-12-21T12:21:43.020Z,13.20
2017-12-21T12:24:13.175Z,17.47
2017-12-21T12:26:42.458Z,21.70
2017-12-21T12:29:11.661Z,16.37
2017-12-21T12:31:40.853Z,17.70
2017-12-21T12:34:10.290Z,14.90
2017-12-21T12:36:40.297Z,11.40
2017-12-21T12:39:09.519Z,14.50
2017-12-21T12:41:38.733Z,12.20
2017-12-21T12:44:07.939Z,15.77
2017-12-21T12:46:37.143Z,13.97
2017-12-21T12:49:06.341Z,17.37
2017-12-21T12:51:35.553Z,13.77
2017-12-21T12:54:05.718Z,15.50
2017-12-21T12:56:34.928Z,14.60
2017-12-21T12:59:04.948Z,13.37
2017-12-21T13:01:34.171Z,11.77
2017-12-21T13:04:03.355Z,12.63
2017-12-21T13:06:32.543Z,14.20
2017-12-21T13:09:01.838Z,14.10
2017-12-21T13:11:31.030Z,15.00
2017-12-21T13:14:00.233Z,13.90
2017-12-21T13:16:29.531Z,22.73
2017-12-21T13:18:59.479Z,21.57
2017-12-21T13:21:28.697Z,17.17
2017-12-21T13:23:58.674Z,19.57
2017-12-21T13:26:27.867Z,13.80
2017-12-21T13:28:57.102Z,18.33
2017-12-21T13:31:26.312Z,16.10
2017-12-21T13:33:56.464Z,20.77
2017-12-21T13:36:25.675Z,12.50
2017-12-21T13:38:54.885Z,18.73
2017-12-21T13:41:24.146Z,15.50
2017-12-21T13:43:53.351Z,18.63
2017-12-21T13:46:22.635Z,18.77
2017-12-21T13:48:51.827Z,19.13
2017-12-21T13:51:21.056Z,15.37
2017-12-21T13:53:50.317Z,18.70
2017-12-21T13:56:20.347Z,18.23
2017-12-21T13:58:49.588Z,19.50
2017-12-21T14:01:18.800Z,19.00
2017-12-21T14:03:47.993Z,12.10
2017-12-21T14:06:17.203Z,18.50
2017-12-21T14:08:47.204Z,13.20
2017-12-21T14:11:16.391Z,19.17
2017-12-21T14:13:45.630Z,18.10
2017-12-21T14:16:15.606Z,15.13
2017-12-21T14:18:44.831Z,13.77
2017-12-21T14:21:14.064Z,15.90
2017-12-21T14:23:43.325Z,29.53
2017-12-21T14:26:12.547Z,14.30
2017-12-21T14:28:41.762Z,22.07
2017-12-21T14:31:11.191Z,15.10
2017-12-21T14:33:40.430Z,19.67
2017-12-21T14:36:10.445Z,23.83
2017-12-21T14:38:39.635Z,23.97
2017-12-21T14:41:09.624Z,19.33
2017-12-21T14:43:38.856Z,24.13
2017-12-21T14:46:08.851Z,18.67
2017-12-21T14:48:38.064Z,17.20
2017-12-21T14:51:07.296Z,19.10
2017-12-21T14:53:37.255Z,16.17
2017-12-21T14:56:06.536Z,14.73
2017-12-21T14:58:35.766Z,17.37
2017-12-21T15:01:04.980Z,19.10
2017-12-21T15:03:34.947Z,16.03
2017-12-21T15:06:04.173Z,16.20
2017-12-21T15:08:33.391Z,18.60
2017-12-21T15:11:03.343Z,21.53
2017-12-21T15:13:32.554Z,14.77
2017-12-21T15:16:01.752Z,21.13
2017-12-21T15:18:30.967Z,16.30
2017-12-21T15:21:00.181Z,12.87
2017-12-21T15:23:29.400Z,14.57
2017-12-21T15:25:59.371Z,21.47
2017-12-21T15:28:28.829Z,13.90
2017-12-21T15:30:58.036Z,10.03
2017-12-21T15:33:27.259Z,11.80
2017-12-21T15:35:56.471Z,15.00
2017-12-21T15:38:25.705Z,17.10
2017-12-21T15:40:55.732Z,27.97
2017-12-21T15:43:24.959Z,21.07
2017-12-21T15:45:54.204Z,21.40
2017-12-21T15:48:24.185Z,21.70
2017-12-21T15:50:53.438Z,22.07
2017-12-21T15:53:23.410Z,21.80
2017-12-21T15:55:52.713Z,20.33
2017-12-21T15:58:21.920Z,24.27
2017-12-21T16:00:51.151Z,29.33
2017-12-21T16:03:21.124Z,24.37
2017-12-21T16:05:50.410Z,31.93
2017-12-21T16:08:19.591Z,29.47
2017-12-21T16:10:48.770Z,35.07
2017-12-21T16:13:17.959Z,31.70
2017-12-21T16:15:47.173Z,35.00
2017-12-21T16:18:16.464Z,31.00
2017-12-21T16:20:45.740Z,40.33
2017-12-21T16:23:15.746Z,56.63
2017-12-21T16:25:44.979Z,49.07
2017-12-21T16:28:14.221Z,48.93
2017-12-21T16:30:44.174Z,53.47
2017-12-21T16:33:14.208Z,43.97
2017-12-21T16:35:43.422Z,41.97
2017-12-21T16:38:12.647Z,50.27
2017-12-21T16:40:41.870Z,44.90
2017-12-21T16:43:11.853Z,46.50
2017-12-21T16:45:41.091Z,38.97
2017-12-21T16:48:11.071Z,35.53
2017-12-21T16:50:40.335Z,47.87
2017-12-21T16:53:09.556Z,43.67
2017-12-21T16:55:38.855Z,38.20
2017-12-21T16:58:08.072Z,42.20
2017-12-21T17:00:37.282Z,50.53
2017-12-21T17:03:06.478Z,40.93
2017-12-21T17:05:36.616Z,41.00
2017-12-21T17:08:05.835Z,42.57
2017-12-21T17:10:35.077Z,58.83
2017-12-21T17:13:04.296Z,51.47
2017-12-21T17:15:33.556Z,46.97
2017-12-21T17:18:02.798Z,44.27
2017-12-21T17:20:32.796Z,49.03
2017-12-21T17:23:02.035Z,54.57
2017-12-21T17:25:31.255Z,46.47
2017-12-21T17:28:00.501Z,42.20
2017-12-21T17:30:30.512Z,43.33
2017-12-21T17:32:59.763Z,42.47
2017-12-21T17:35:28.983Z,40.80
2017-12-21T17:37:58.207Z,46.17
2017-12-21T17:40:29.117Z,46.60
2017-12-21T17:42:58.354Z,42.13
2017-12-21T17:45:28.335Z,41.90
2017-12-21T17:47:58.014Z,39.87
2017-12-21T17:50:27.240Z,36.90
2017-12-21T17:52:56.506Z,34.53
2017-12-21T17:55:25.710Z,43.63
2017-12-21T17:57:55.700Z,43.33
2017-12-21T18:00:24.979Z,37.67
2017-12-21T18:02:54.188Z,38.90
2017-12-21T18:05:24.224Z,40.50
2017-12-21T18:07:53.475Z,35.13
2017-12-21T18:10:22.840Z,33.40
2017-12-21T18:12:52.135Z,35.60
2017-12-21T18:15:21.428Z,40.40
2017-12-21T18:17:50.661Z,41.80
2017-12-21T18:20:19.953Z,39.90
2017-12-21T18:22:49.244Z,46.37
2017-12-21T18:25:18.552Z,41.40
2017-12-21T18:27:47.835Z,41.33
2017-12-21T18:30:17.176Z,38.07
2017-12-21T18:32:47.218Z,40.47
2017-12-21T18:35:17.304Z,40.70
2017-12-21T18:37:46.571Z,39.17
2017-12-21T18:40:15.927Z,42.30
2017-12-21T18:42:45.256Z,43.83
2017-12-21T18:45:14.574Z,41.67
2017-12-21T18:47:43.972Z,37.77
2017-12-21T18:50:13.396Z,36.90
2017-12-21T18:52:42.978Z,40.13
2017-12-21T18:55:12.378Z,41.00
2017-12-21T18:57:41.905Z,44.90
2017-12-21T19:00:11.437Z,40.30
2017-12-21T19:02:41.815Z,41.27
2017-12-21T19:05:11.260Z,42.63
2017-12-21T19:07:41.475Z,44.13
2017-12-21T19:10:10.811Z,43.63
2017-12-21T19:12:41.038Z,42.63
2017-12-21T19:15:10.588Z,40.30
2017-12-21T19:17:40.032Z,44.67
2017-12-21T19:20:10.292Z,33.63
2017-12-21T19:22:40.474Z,38.63
2017-12-21T19:25:10.741Z,42.43
2017-12-21T19:27:40.286Z,35.17
2017-12-21T19:30:09.766Z,36.60
2017-12-21T19:32:39.313Z,29.77
2017-12-21T19:35:09.777Z,39.23
2017-12-21T19:37:40.256Z,34.67
2017-12-21T19:40:10.697Z,36.80
2017-12-21T19:42:40.399Z,38.37
2017-12-21T19:45:09.961Z,39.17
2017-12-21T19:47:40.231Z,38.10
2017-12-21T19:50:10.480Z,33.80
2017-12-21T19:52:39.970Z,34.03
2017-12-21T19:55:09.679Z,39.20
2017-12-21T19:57:39.218Z,38.20
2017-12-21T20:00:09.091Z,43.97
2017-12-21T20:02:38.624Z,36.00
2017-12-21T20:05:08.314Z,39.77
2017-12-21T20:07:37.960Z,41.40
2017-12-21T20:10:07.679Z,45.87
2017-12-21T20:12:37.447Z,45.83
2017-12-21T20:15:06.975Z,43.23
2017-12-21T20:17:37.429Z,37.53
2017-12-21T20:20:07.975Z,43.90
2017-12-21T20:22:37.727Z,40.50
2017-12-21T20:25:08.205Z,39.00
2017-12-21T20:27:37.862Z,43.20
2017-12-21T20:30:08.039Z,43.50
2017-12-21T20:32:37.626Z,42.70
2017-12-21T20:35:07.110Z,42.50
2017-12-21T20:37:37.589Z,49.80
2017-12-21T20:40:07.291Z,46.83
2017-12-21T20:42:37.107Z,49.03
2017-12-21T20:45:07.515Z,46.43
2017-12-21T20:47:37.301Z,54.67
2017-12-21T20:50:07.613Z,52.13
2017-12-21T20:52:38.031Z,52.70
2017-12-21T20:55:07.611Z,50.57
2017-12-21T20:57:37.335Z,50.63
2017-12-21T21:00:06.895Z,49.10
2017-12-21T21:02:36.563Z,67.43
2017-12-21T21:05:06.197Z,58.10
2017-12-21T21:07:35.864Z,53.77
2017-12-21T21:10:05.350Z,52.90
2017-12-21T21:12:34.823Z,49.87
2017-12-21T21:15:04.332Z,50.43
2017-12-21T21:17:33.994Z,45.70
2017-12-21T21:20:03.461Z,43.50
2017-12-21T21:22:33.914Z,48.00
2017-12-21T21:25:03.472Z,44.70
2017-12-21T21:27:33.782Z,47.97
2017-12-21T21:30:03.251Z,50.07
2017-12-21T21:32:32.806Z,49.53
2017-12-21T21:35:03.094Z,48.77
2017-12-21T21:37:32.537Z,50.80
2017-12-21T21:40:01.903Z,44.23
2017-12-21T21:42:31.227Z,44.53
2017-12-21T21:45:00.555Z,44.70
2017-12-21T21:47:30.615Z,44.90
2017-12-21T21:49:59.899Z,45.00
2017-12-21T21:52:29.120Z,52.30
2017-12-21T21:54:58.324Z,44.30
2017-12-21T21:57:27.561Z,43.53
2017-12-21T21:59:57.547Z,39.03
2017-12-21T22:02:26.744Z,44.73
2017-12-21T22:04:55.982Z,44.63
2017-12-21T22:07:25.202Z,49.23
2017-12-21T22:09:54.436Z,52.73
2017-12-21T22:12:23.648Z,43.63
2017-12-21T22:14:52.853Z,43.67
2017-12-21T22:17:22.120Z,41.93
2017-12-21T22:19:51.330Z,37.17
2017-12-21T22:22:20.560Z,47.23
2017-12-21T22:24:50.515Z,43.23
2017-12-21T22:27:19.739Z,35.73
2017-12-21T22:29:49.012Z,39.50
2017-12-21T22:32:18.223Z,40.23
2017-12-21T22:34:47.436Z,44.03
2017-12-21T22:37:16.601Z,45.03
2017-12-21T22:39:45.852Z,46.07
2017-12-21T22:42:15.827Z,38.33
2017-12-21T22:44:45.124Z,45.50
2017-12-21T22:47:14.316Z,42.87
2017-12-21T22:49:43.587Z,37.90
2017-12-21T22:52:12.951Z,39.97
2017-12-21T22:54:43.255Z,46.07
2017-12-21T22:57:14.555Z,44.83
2017-12-21T22:59:47.562Z,40.07
2017-12-21T23:02:17.552Z,36.80
2017-12-21T23:04:47.614Z,38.67
2017-12-21T23:07:16.922Z,41.97
2017-12-21T23:09:46.152Z,47.30
2017-12-21T23:12:16.144Z,47.20
2017-12-21T23:14:45.488Z,53.63
2017-12-21T23:17:14.731Z,56.10
2017-12-21T23:19:43.972Z,67.70
2017-12-21T23:22:13.328Z,65.90
2017-12-21T23:24:42.604Z,70.47
2017-12-21T23:27:11.913Z,71.03
2017-12-21T23:29:41.147Z,61.03
2017-12-21T23:32:10.374Z,65.37
2017-12-21T23:34:39.599Z,57.07
2017-12-21T23:37:08.830Z,60.60
2017-12-21T23:39:38.048Z,80.37
2017-12-21T23:42:07.253Z,77.27
2017-12-21T23:44:37.448Z,64.70
2017-12-21T23:47:07.488Z,54.47
2017-12-21T23:49:36.663Z,51.73
2017-12-21T23:52:05.867Z,67.90
2017-12-21T23:54:35.091Z,73.43
2017-12-21T23:57:05.163Z,62.10
2017-12-21T23:59:34.366Z,57.10
